Low Moor, Iowa
Current Conditions -  °F | °C
As of 12:55 PM on Friday 31 Oct 2014 (Local Time) from KCWI Reporting Station
Scattered Clouds Scattered Clouds  
Wind Chill: 32°   Ceiling: Unl
Heat Index: 41°   Visibility: 10mi
Dew Point: 19°   Wind: 21mph
Humidity: 42%   Direction: 350°N
Pressure: 30.36"   Gusts: 29mph
Location:  41.8°N, 90.35°W
Report Text: KCWI 311755Z 35018G25KT 10SM SCT050 05/M07 A3036 RMK AO1 10060 20000 52010
Loading
Personal Weather Stations






























Interactive Weather Map
Tropical Storm Tracking
New forecast layout! Learn more

10-Day Weather Forecast

Advertisements
Track Severe Weather on mobile